sensor_id;sensor_type;location;lat;lon;timestamp;temperature;humidity
12408;DHT22;6268;48.188;17.134;2023-06-19T00:01:48;21.00;99.90
12408;DHT22;6268;48.188;17.134;2023-06-19T00:04:17;21.10;99.90
12408;DHT22;6268;48.188;17.134;2023-06-19T00:06:45;21.00;99.90
12408;DHT22;6268;48.188;17.134;2023-06-19T00:09:15;21.00;99.90
12408;DHT22;6268;48.188;17.134;2023-06-19T00:11:45;21.00;99.90
12408;DHT22;6268;48.188;17.134;2023-06-19T00:14:14;21.00;99.90
12408;DHT22;6268;48.188;17.134;2023-06-19T00:16:43;21.00;99.90
12408;DHT22;6268;48.188;17.134;2023-06-19T00:19:11;21.00;99.90
12408;DHT22;6268;48.188;17.134;2023-06-19T00:21:40;21.00;99.90
12408;DHT22;6268;48.188;17.134;2023-06-19T00:24:10;21.00;99.90
12408;DHT22;6268;48.188;17.134;2023-06-19T00:26:38;21.10;99.90
12408;DHT22;6268;48.188;17.134;2023-06-19T00:29:08;21.10;99.90
12408;DHT22;6268;48.188;17.134;2023-06-19T00:31:37;21.10;99.90
12408;DHT22;6268;48.188;17.134;2023-06-19T00:34:05;21.10;99.90
12408;DHT22;6268;48.188;17.134;2023-06-19T00:36:34;21.10;99.90
12408;DHT22;6268;48.188;17.134;2023-06-19T00:39:08;21.00;99.90
12408;DHT22;6268;48.188;17.134;2023-06-19T00:41:36;21.00;99.90
12408;DHT22;6268;48.188;17.134;2023-06-19T00:44:05;20.90;99.90
12408;DHT22;6268;48.188;17.134;2023-06-19T00:46:38;20.90;99.90
12408;DHT22;6268;48.188;17.134;2023-06-19T00:49:07;20.90;99.90
12408;DHT22;6268;48.188;17.134;2023-06-19T00:51:37;20.90;99.90
12408;DHT22;6268;48.188;17.134;2023-06-19T00:54:05;20.90;99.90
12408;DHT22;6268;48.188;17.134;2023-06-19T00:56:37;20.80;99.90
12408;DHT22;6268;48.188;17.134;2023-06-19T00:59:16;20.80;99.90
12408;DHT22;6268;48.188;17.134;2023-06-19T01:01:47;20.80;99.90
12408;DHT22;6268;48.188;17.134;2023-06-19T01:04:15;20.70;99.90
12408;DHT22;6268;48.188;17.134;2023-06-19T01:06:50;20.70;99.90
12408;DHT22;6268;48.188;17.134;2023-06-19T01:09:29;20.70;99.90
12408;DHT22;6268;48.188;17.134;2023-06-19T01:12:13;20.60;99.90
12408;DHT22;6268;48.188;17.134;2023-06-19T01:14:49;20.60;99.90
12408;DHT22;6268;48.188;17.134;2023-06-19T01:17:20;20.60;99.90
12408;DHT22;6268;48.188;17.134;2023-06-19T01:19:49;20.60;99.90
12408;DHT22;6268;48.188;17.134;2023-06-19T01:22:27;20.60;99.90
12408;DHT22;6268;48.188;17.134;2023-06-19T01:24:56;20.60;99.90
12408;DHT22;6268;48.188;17.134;2023-06-19T01:27:25;20.60;99.90
12408;DHT22;6268;48.188;17.134;2023-06-19T01:29:57;20.70;99.90
12408;DHT22;6268;48.188;17.134;2023-06-19T01:32:31;20.70;99.90
12408;DHT22;6268;48.188;17.134;2023-06-19T01:35:01;20.70;99.90
12408;DHT22;6268;48.188;17.134;2023-06-19T01:37:32;20.70;99.90
12408;DHT22;6268;48.188;17.134;2023-06-19T01:40:03;20.70;99.90
12408;DHT22;6268;48.188;17.134;2023-06-19T01:42:33;20.70;99.90
12408;DHT22;6268;48.188;17.134;2023-06-19T01:45:02;20.70;99.90
12408;DHT22;6268;48.188;17.134;2023-06-19T01:47:31;20.70;99.90
12408;DHT22;6268;48.188;17.134;2023-06-19T01:50:00;20.60;99.90
12408;DHT22;6268;48.188;17.134;2023-06-19T01:52:28;20.50;99.90
12408;DHT22;6268;48.188;17.134;2023-06-19T01:54:58;20.50;99.90
12408;DHT22;6268;48.188;17.134;2023-06-19T01:57:27;20.50;99.90
12408;DHT22;6268;48.188;17.134;2023-06-19T01:59:55;20.40;99.90
12408;DHT22;6268;48.188;17.134;2023-06-19T02:02:24;20.40;99.90
12408;DHT22;6268;48.188;17.134;2023-06-19T02:04:53;20.40;99.90
12408;DHT22;6268;48.188;17.134;2023-06-19T02:07:21;20.30;99.90
12408;DHT22;6268;48.188;17.134;2023-06-19T02:09:50;20.30;99.90
12408;DHT22;6268;48.188;17.134;2023-06-19T02:12:19;20.30;99.90
12408;DHT22;6268;48.188;17.134;2023-06-19T02:14:48;20.30;99.90
12408;DHT22;6268;48.188;17.134;2023-06-19T02:17:17;20.30;99.90
12408;DHT22;6268;48.188;17.134;2023-06-19T02:19:45;20.30;99.90
12408;DHT22;6268;48.188;17.134;2023-06-19T02:22:14;20.30;99.90
12408;DHT22;6268;48.188;17.134;2023-06-19T02:24:42;20.30;99.90
12408;DHT22;6268;48.188;17.134;2023-06-19T02:27:11;20.30;99.90
12408;DHT22;6268;48.188;17.134;2023-06-19T02:29:41;20.20;99.90
12408;DHT22;6268;48.188;17.134;2023-06-19T02:32:09;20.20;99.90
12408;DHT22;6268;48.188;17.134;2023-06-19T02:34:38;20.20;99.90
12408;DHT22;6268;48.188;17.134;2023-06-19T02:37:06;20.10;99.90
12408;DHT22;6268;48.188;17.134;2023-06-19T02:39:35;20.10;99.90
12408;DHT22;6268;48.188;17.134;2023-06-19T02:42:04;20.10;99.90
12408;DHT22;6268;48.188;17.134;2023-06-19T02:44:33;20.10;99.90
12408;DHT22;6268;48.188;17.134;2023-06-19T02:47:03;20.10;99.90
12408;DHT22;6268;48.188;17.134;2023-06-19T02:49:32;20.10;99.90
12408;DHT22;6268;48.188;17.134;2023-06-19T02:52:00;20.10;99.90
12408;DHT22;6268;48.188;17.134;2023-06-19T02:54:29;20.00;99.90
12408;DHT22;6268;48.188;17.134;2023-06-19T02:56:57;20.00;99.90
12408;DHT22;6268;48.188;17.134;2023-06-19T02:59:27;20.00;99.90
12408;DHT22;6268;48.188;17.134;2023-06-19T03:01:55;19.90;99.90
12408;DHT22;6268;48.188;17.134;2023-06-19T03:04:25;19.90;99.90
12408;DHT22;6268;48.188;17.134;2023-06-19T03:06:55;19.90;99.90
12408;DHT22;6268;48.188;17.134;2023-06-19T03:09:24;19.90;99.90
12408;DHT22;6268;48.188;17.134;2023-06-19T03:11:52;19.90;99.90
12408;DHT22;6268;48.188;17.134;2023-06-19T03:14:21;19.90;99.90
12408;DHT22;6268;48.188;17.134;2023-06-19T03:16:50;19.90;99.90
12408;DHT22;6268;48.188;17.134;2023-06-19T03:19:18;19.90;99.90
12408;DHT22;6268;48.188;17.134;2023-06-19T03:21:49;19.90;99.90
12408;DHT22;6268;48.188;17.134;2023-06-19T03:24:17;19.90;99.90
12408;DHT22;6268;48.188;17.134;2023-06-19T03:26:45;19.90;99.90
12408;DHT22;6268;48.188;17.134;2023-06-19T03:29:14;20.00;99.90
12408;DHT22;6268;48.188;17.134;2023-06-19T03:31:42;20.00;99.90
12408;DHT22;6268;48.188;17.134;2023-06-19T03:34:11;20.10;99.90
12408;DHT22;6268;48.188;17.134;2023-06-19T03:36:40;20.10;99.90
12408;DHT22;6268;48.188;17.134;2023-06-19T03:39:10;20.10;99.90
12408;DHT22;6268;48.188;17.134;2023-06-19T03:41:38;20.30;99.90
12408;DHT22;6268;48.188;17.134;2023-06-19T03:44:07;20.30;99.90
12408;DHT22;6268;48.188;17.134;2023-06-19T03:46:35;20.50;99.90
12408;DHT22;6268;48.188;17.134;2023-06-19T03:49:04;20.60;99.90
12408;DHT22;6268;48.188;17.134;2023-06-19T03:51:33;20.80;99.90
12408;DHT22;6268;48.188;17.134;2023-06-19T03:54:01;21.00;99.90
12408;DHT22;6268;48.188;17.134;2023-06-19T03:56:31;21.20;99.90
12408;DHT22;6268;48.188;17.134;2023-06-19T03:59:00;21.40;99.90
12408;DHT22;6268;48.188;17.134;2023-06-19T04:01:28;21.60;99.90
12408;DHT22;6268;48.188;17.134;2023-06-19T04:03:57;21.70;99.90
12408;DHT22;6268;48.188;17.134;2023-06-19T04:06:26;21.90;99.90
12408;DHT22;6268;48.188;17.134;2023-06-19T04:08:55;22.10;99.90
12408;DHT22;6268;48.188;17.134;2023-06-19T04:11:23;22.30;99.90
12408;DHT22;6268;48.188;17.134;2023-06-19T04:13:53;22.50;99.90
12408;DHT22;6268;48.188;17.134;2023-06-19T04:16:22;22.80;99.90
12408;DHT22;6268;48.188;17.134;2023-06-19T04:18:50;22.90;99.90
12408;DHT22;6268;48.188;17.134;2023-06-19T04:21:19;23.10;99.90
12408;DHT22;6268;48.188;17.134;2023-06-19T04:23:47;23.30;99.90
12408;DHT22;6268;48.188;17.134;2023-06-19T04:26:16;23.50;99.90
12408;DHT22;6268;48.188;17.134;2023-06-19T04:28:45;23.70;99.90
12408;DHT22;6268;48.188;17.134;2023-06-19T04:31:15;24.00;99.90
12408;DHT22;6268;48.188;17.134;2023-06-19T04:33:45;24.20;99.90
12408;DHT22;6268;48.188;17.134;2023-06-19T04:36:13;24.50;99.90
12408;DHT22;6268;48.188;17.134;2023-06-19T04:38:42;24.80;99.90
12408;DHT22;6268;48.188;17.134;2023-06-19T04:41:11;25.00;98.80
12408;DHT22;6268;48.188;17.134;2023-06-19T04:43:41;25.20;98.50
12408;DHT22;6268;48.188;17.134;2023-06-19T04:46:09;25.40;97.10
12408;DHT22;6268;48.188;17.134;2023-06-19T04:48:39;25.60;95.20
12408;DHT22;6268;48.188;17.134;2023-06-19T04:51:08;25.60;93.30
12408;DHT22;6268;48.188;17.134;2023-06-19T04:53:36;25.70;92.90
12408;DHT22;6268;48.188;17.134;2023-06-19T04:56:05;25.80;92.20
12408;DHT22;6268;48.188;17.134;2023-06-19T04:58:33;25.90;91.30
12408;DHT22;6268;48.188;17.134;2023-06-19T05:01:02;26.10;90.90
12408;DHT22;6268;48.188;17.134;2023-06-19T05:03:30;26.40;90.60
12408;DHT22;6268;48.188;17.134;2023-06-19T05:06:00;26.50;90.30
12408;DHT22;6268;48.188;17.134;2023-06-19T05:08:29;26.70;90.30
12408;DHT22;6268;48.188;17.134;2023-06-19T05:10:57;26.60;88.50
12408;DHT22;6268;48.188;17.134;2023-06-19T05:13:26;26.60;88.60
12408;DHT22;6268;48.188;17.134;2023-06-19T05:15:54;26.60;90.30
12408;DHT22;6268;48.188;17.134;2023-06-19T05:18:23;27.00;88.80
12408;DHT22;6268;48.188;17.134;2023-06-19T05:20:51;27.40;86.90
12408;DHT22;6268;48.188;17.134;2023-06-19T05:23:21;27.70;85.30
12408;DHT22;6268;48.188;17.134;2023-06-19T05:25:50;28.10;79.10
12408;DHT22;6268;48.188;17.134;2023-06-19T05:28:18;28.20;80.00
12408;DHT22;6268;48.188;17.134;2023-06-19T05:30:47;28.40;75.70
12408;DHT22;6268;48.188;17.134;2023-06-19T05:33:17;27.80;76.20
12408;DHT22;6268;48.188;17.134;2023-06-19T05:35:45;27.40;78.90
12408;DHT22;6268;48.188;17.134;2023-06-19T05:38:20;27.70;76.80
12408;DHT22;6268;48.188;17.134;2023-06-19T05:40:50;27.40;77.10
12408;DHT22;6268;48.188;17.134;2023-06-19T05:43:19;27.00;77.10
12408;DHT22;6268;48.188;17.134;2023-06-19T05:45:49;26.90;80.40
12408;DHT22;6268;48.188;17.134;2023-06-19T05:48:17;27.10;78.00
12408;DHT22;6268;48.188;17.134;2023-06-19T05:50:46;26.90;78.00
12408;DHT22;6268;48.188;17.134;2023-06-19T05:53:14;27.20;77.80
12408;DHT22;6268;48.188;17.134;2023-06-19T05:55:44;27.40;76.60
12408;DHT22;6268;48.188;17.134;2023-06-19T05:58:13;27.00;76.60
12408;DHT22;6268;48.188;17.134;2023-06-19T06:00:41;27.20;75.30
12408;DHT22;6268;48.188;17.134;2023-06-19T06:03:10;27.50;73.90
12408;DHT22;6268;48.188;17.134;2023-06-19T06:05:38;27.50;74.50
12408;DHT22;6268;48.188;17.134;2023-06-19T06:08:07;27.50;73.60
12408;DHT22;6268;48.188;17.134;2023-06-19T06:10:35;27.50;74.10
12408;DHT22;6268;48.188;17.134;2023-06-19T06:13:05;27.80;74.50
12408;DHT22;6268;48.188;17.134;2023-06-19T06:15:34;28.30;72.70
12408;DHT22;6268;48.188;17.134;2023-06-19T06:18:02;29.00;69.90
12408;DHT22;6268;48.188;17.134;2023-06-19T06:20:31;29.50;68.60
12408;DHT22;6268;48.188;17.134;2023-06-19T06:22:59;29.80;68.80
12408;DHT22;6268;48.188;17.134;2023-06-19T06:25:28;30.20;67.20
12408;DHT22;6268;48.188;17.134;2023-06-19T06:27:56;30.40;64.70
12408;DHT22;6268;48.188;17.134;2023-06-19T06:30:26;30.60;63.30
12408;DHT22;6268;48.188;17.134;2023-06-19T06:32:55;30.70;62.60
12408;DHT22;6268;48.188;17.134;2023-06-19T06:35:24;30.80;62.60
12408;DHT22;6268;48.188;17.134;2023-06-19T06:37:52;30.50;62.10
12408;DHT22;6268;48.188;17.134;2023-06-19T06:40:21;30.50;61.40
12408;DHT22;6268;48.188;17.134;2023-06-19T06:42:50;30.10;62.70
12408;DHT22;6268;48.188;17.134;2023-06-19T06:45:18;30.00;64.10
12408;DHT22;6268;48.188;17.134;2023-06-19T06:47:48;30.40;63.50
12408;DHT22;6268;48.188;17.134;2023-06-19T06:50:17;30.60;62.60
12408;DHT22;6268;48.188;17.134;2023-06-19T06:52:45;30.60;63.30
12408;DHT22;6268;48.188;17.134;2023-06-19T06:55:14;30.50;62.10
12408;DHT22;6268;48.188;17.134;2023-06-19T06:57:42;30.50;62.10
12408;DHT22;6268;48.188;17.134;2023-06-19T07:00:12;30.90;59.70
12408;DHT22;6268;48.188;17.134;2023-06-19T07:02:40;31.20;59.60
12408;DHT22;6268;48.188;17.134;2023-06-19T07:05:10;31.60;60.00
12408;DHT22;6268;48.188;17.134;2023-06-19T07:07:39;31.50;59.30
12408;DHT22;6268;48.188;17.134;2023-06-19T07:10:08;31.30;59.50
12408;DHT22;6268;48.188;17.134;2023-06-19T07:12:44;31.40;59.60
12408;DHT22;6268;48.188;17.134;2023-06-19T07:15:13;31.40;59.10
12408;DHT22;6268;48.188;17.134;2023-06-19T07:17:42;31.50;59.60
12408;DHT22;6268;48.188;17.134;2023-06-19T07:20:13;31.90;59.00
12408;DHT22;6268;48.188;17.134;2023-06-19T07:22:42;32.20;58.10
12408;DHT22;6268;48.188;17.134;2023-06-19T07:25:11;32.00;58.20
12408;DHT22;6268;48.188;17.134;2023-06-19T07:27:40;32.10;58.00
12408;DHT22;6268;48.188;17.134;2023-06-19T07:30:10;32.50;57.30
12408;DHT22;6268;48.188;17.134;2023-06-19T07:32:47;32.80;56.50
12408;DHT22;6268;48.188;17.134;2023-06-19T07:35:17;32.80;55.70
12408;DHT22;6268;48.188;17.134;2023-06-19T07:37:46;32.30;56.70
12408;DHT22;6268;48.188;17.134;2023-06-19T07:40:14;32.30;57.60
12408;DHT22;6268;48.188;17.134;2023-06-19T07:42:43;32.70;57.10
12408;DHT22;6268;48.188;17.134;2023-06-19T07:45:12;33.20;56.10
12408;DHT22;6268;48.188;17.134;2023-06-19T07:47:41;33.40;54.50
12408;DHT22;6268;48.188;17.134;2023-06-19T07:50:10;32.90;54.20
12408;DHT22;6268;48.188;17.134;2023-06-19T07:52:40;32.90;54.80
12408;DHT22;6268;48.188;17.134;2023-06-19T07:55:09;33.00;55.50
12408;DHT22;6268;48.188;17.134;2023-06-19T07:57:37;33.00;54.40
12408;DHT22;6268;48.188;17.134;2023-06-19T08:00:07;33.00;54.70
12408;DHT22;6268;48.188;17.134;2023-06-19T08:02:38;32.80;55.30
12408;DHT22;6268;48.188;17.134;2023-06-19T08:05:08;32.70;55.00
12408;DHT22;6268;48.188;17.134;2023-06-19T08:07:37;32.30;56.80
12408;DHT22;6268;48.188;17.134;2023-06-19T08:10:08;32.70;55.60
12408;DHT22;6268;48.188;17.134;2023-06-19T08:12:41;33.00;55.90
12408;DHT22;6268;48.188;17.134;2023-06-19T08:15:10;33.10;55.00
12408;DHT22;6268;48.188;17.134;2023-06-19T08:17:41;33.00;54.70
12408;DHT22;6268;48.188;17.134;2023-06-19T08:20:10;33.50;54.40
12408;DHT22;6268;48.188;17.134;2023-06-19T08:22:39;33.70;54.30
12408;DHT22;6268;48.188;17.134;2023-06-19T08:25:09;33.80;54.50
12408;DHT22;6268;48.188;17.134;2023-06-19T08:27:38;33.60;54.60
12408;DHT22;6268;48.188;17.134;2023-06-19T08:30:07;33.50;54.50
12408;DHT22;6268;48.188;17.134;2023-06-19T08:32:36;33.00;55.70
12408;DHT22;6268;48.188;17.134;2023-06-19T08:35:05;33.20;55.90
12408;DHT22;6268;48.188;17.134;2023-06-19T08:37:34;33.80;55.20
12408;DHT22;6268;48.188;17.134;2023-06-19T08:40:03;33.90;54.40
12408;DHT22;6268;48.188;17.134;2023-06-19T08:42:38;33.90;54.20
12408;DHT22;6268;48.188;17.134;2023-06-19T08:45:07;34.10;54.70
12408;DHT22;6268;48.188;17.134;2023-06-19T08:47:36;34.60;53.10
12408;DHT22;6268;48.188;17.134;2023-06-19T08:50:06;34.80;52.20
12408;DHT22;6268;48.188;17.134;2023-06-19T08:52:35;35.00;52.40
12408;DHT22;6268;48.188;17.134;2023-06-19T08:55:04;34.90;52.00
12408;DHT22;6268;48.188;17.134;2023-06-19T08:57:34;35.00;50.90
12408;DHT22;6268;48.188;17.134;2023-06-19T09:00:05;35.10;51.10
12408;DHT22;6268;48.188;17.134;2023-06-19T09:02:38;34.80;51.30
12408;DHT22;6268;48.188;17.134;2023-06-19T09:05:14;34.70;51.70
12408;DHT22;6268;48.188;17.134;2023-06-19T09:07:44;34.90;51.30
12408;DHT22;6268;48.188;17.134;2023-06-19T09:10:17;34.70;51.90
12408;DHT22;6268;48.188;17.134;2023-06-19T09:12:56;34.40;52.20
12408;DHT22;6268;48.188;17.134;2023-06-19T09:15:29;34.30;52.30
12408;DHT22;6268;48.188;17.134;2023-06-19T09:18:05;34.40;52.70
12408;DHT22;6268;48.188;17.134;2023-06-19T09:20:37;34.20;52.30
12408;DHT22;6268;48.188;17.134;2023-06-19T09:23:09;34.00;52.70
12408;DHT22;6268;48.188;17.134;2023-06-19T09:25:45;34.10;52.40
12408;DHT22;6268;48.188;17.134;2023-06-19T09:28:18;33.60;53.70
12408;DHT22;6268;48.188;17.134;2023-06-19T09:30:59;33.30;53.80
12408;DHT22;6268;48.188;17.134;2023-06-19T09:33:29;32.50;54.90
12408;DHT22;6268;48.188;17.134;2023-06-19T09:35:59;32.50;55.40
12408;DHT22;6268;48.188;17.134;2023-06-19T09:38:30;33.00;54.70
12408;DHT22;6268;48.188;17.134;2023-06-19T09:41:01;33.20;53.20
12408;DHT22;6268;48.188;17.134;2023-06-19T09:43:34;33.30;53.50
12408;DHT22;6268;48.188;17.134;2023-06-19T09:46:06;33.50;53.70
12408;DHT22;6268;48.188;17.134;2023-06-19T09:48:35;33.70;53.50
12408;DHT22;6268;48.188;17.134;2023-06-19T09:51:11;34.10;53.10
12408;DHT22;6268;48.188;17.134;2023-06-19T09:53:40;34.20;53.20
12408;DHT22;6268;48.188;17.134;2023-06-19T09:56:09;33.70;53.50
12408;DHT22;6268;48.188;17.134;2023-06-19T09:58:38;33.40;55.40
12408;DHT22;6268;48.188;17.134;2023-06-19T10:01:09;32.90;54.30
12408;DHT22;6268;48.188;17.134;2023-06-19T10:03:40;32.70;55.50
12408;DHT22;6268;48.188;17.134;2023-06-19T10:06:13;33.20;54.60
12408;DHT22;6268;48.188;17.134;2023-06-19T10:08:44;33.50;55.30
12408;DHT22;6268;48.188;17.134;2023-06-19T10:11:12;33.80;53.80
12408;DHT22;6268;48.188;17.134;2023-06-19T10:13:42;34.00;52.90
12408;DHT22;6268;48.188;17.134;2023-06-19T10:16:21;34.00;53.00
12408;DHT22;6268;48.188;17.134;2023-06-19T10:18:50;34.10;52.80
12408;DHT22;6268;48.188;17.134;2023-06-19T10:21:20;34.30;51.80
12408;DHT22;6268;48.188;17.134;2023-06-19T10:23:56;34.20;52.00
12408;DHT22;6268;48.188;17.134;2023-06-19T10:26:32;33.50;53.40
12408;DHT22;6268;48.188;17.134;2023-06-19T10:29:01;33.80;53.30
12408;DHT22;6268;48.188;17.134;2023-06-19T10:31:32;33.90;52.90
12408;DHT22;6268;48.188;17.134;2023-06-19T10:34:03;33.70;53.50
12408;DHT22;6268;48.188;17.134;2023-06-19T10:36:32;33.60;53.20
12408;DHT22;6268;48.188;17.134;2023-06-19T10:39:00;33.80;53.10
12408;DHT22;6268;48.188;17.134;2023-06-19T10:41:29;34.40;53.70
12408;DHT22;6268;48.188;17.134;2023-06-19T10:44:02;34.30;51.80
12408;DHT22;6268;48.188;17.134;2023-06-19T10:46:34;34.10;52.10
12408;DHT22;6268;48.188;17.134;2023-06-19T10:49:04;34.00;52.60
12408;DHT22;6268;48.188;17.134;2023-06-19T10:51:34;34.20;53.00
12408;DHT22;6268;48.188;17.134;2023-06-19T10:54:04;34.50;52.60
12408;DHT22;6268;48.188;17.134;2023-06-19T10:56:32;34.80;52.00
12408;DHT22;6268;48.188;17.134;2023-06-19T10:59:03;34.80;51.60
12408;DHT22;6268;48.188;17.134;2023-06-19T11:01:36;34.70;52.00
12408;DHT22;6268;48.188;17.134;2023-06-19T11:04:06;34.60;51.90
12408;DHT22;6268;48.188;17.134;2023-06-19T11:06:35;34.10;52.60
12408;DHT22;6268;48.188;17.134;2023-06-19T11:09:05;33.70;53.70
12408;DHT22;6268;48.188;17.134;2023-06-19T11:11:38;33.60;53.10
12408;DHT22;6268;48.188;17.134;2023-06-19T11:14:08;33.70;53.00
12408;DHT22;6268;48.188;17.134;2023-06-19T11:16:40;33.50;52.70
12408;DHT22;6268;48.188;17.134;2023-06-19T11:19:14;33.20;53.40
12408;DHT22;6268;48.188;17.134;2023-06-19T11:21:46;33.00;53.90
12408;DHT22;6268;48.188;17.134;2023-06-19T11:24:16;32.90;55.00
12408;DHT22;6268;48.188;17.134;2023-06-19T11:26:46;32.80;54.80
12408;DHT22;6268;48.188;17.134;2023-06-19T11:29:20;32.70;54.70
12408;DHT22;6268;48.188;17.134;2023-06-19T11:31:51;32.40;54.90
12408;DHT22;6268;48.188;17.134;2023-06-19T11:34:31;32.30;54.70
12408;DHT22;6268;48.188;17.134;2023-06-19T11:37:00;31.90;55.60
12408;DHT22;6268;48.188;17.134;2023-06-19T11:39:29;31.70;56.20
12408;DHT22;6268;48.188;17.134;2023-06-19T11:41:58;31.70;56.30
12408;DHT22;6268;48.188;17.134;2023-06-19T11:44:27;31.80;56.30
12408;DHT22;6268;48.188;17.134;2023-06-19T11:46:58;31.50;56.10
12408;DHT22;6268;48.188;17.134;2023-06-19T11:49:27;31.30;55.20
12408;DHT22;6268;48.188;17.134;2023-06-19T11:51:59;31.00;55.90
12408;DHT22;6268;48.188;17.134;2023-06-19T11:54:28;31.00;54.50
12408;DHT22;6268;48.188;17.134;2023-06-19T11:56:56;30.80;53.50
12408;DHT22;6268;48.188;17.134;2023-06-19T11:59:25;30.70;55.20
12408;DHT22;6268;48.188;17.134;2023-06-19T12:01:53;31.00;54.40
12408;DHT22;6268;48.188;17.134;2023-06-19T12:04:25;31.10;53.90
12408;DHT22;6268;48.188;17.134;2023-06-19T12:06:54;31.20;51.80
12408;DHT22;6268;48.188;17.134;2023-06-19T12:09:22;31.00;50.60
12408;DHT22;6268;48.188;17.134;2023-06-19T12:11:51;31.00;51.40
12408;DHT22;6268;48.188;17.134;2023-06-19T12:14:20;30.80;51.90
12408;DHT22;6268;48.188;17.134;2023-06-19T12:16:48;30.90;54.40
12408;DHT22;6268;48.188;17.134;2023-06-19T12:19:17;30.80;56.20
12408;DHT22;6268;48.188;17.134;2023-06-19T12:21:48;30.80;52.60
12408;DHT22;6268;48.188;17.134;2023-06-19T12:24:17;30.90;50.90
12408;DHT22;6268;48.188;17.134;2023-06-19T12:26:45;30.80;50.90
12408;DHT22;6268;48.188;17.134;2023-06-19T12:29:14;30.90;51.40
12408;DHT22;6268;48.188;17.134;2023-06-19T12:31:43;31.10;49.20
12408;DHT22;6268;48.188;17.134;2023-06-19T12:34:11;31.00;46.70
12408;DHT22;6268;48.188;17.134;2023-06-19T12:36:48;31.00;48.80
12408;DHT22;6268;48.188;17.134;2023-06-19T12:39:17;31.10;49.90
12408;DHT22;6268;48.188;17.134;2023-06-19T12:41:45;31.00;50.40
12408;DHT22;6268;48.188;17.134;2023-06-19T12:44:14;31.00;49.90
12408;DHT22;6268;48.188;17.134;2023-06-19T12:46:42;31.10;49.30
12408;DHT22;6268;48.188;17.134;2023-06-19T12:49:11;31.10;51.40
12408;DHT22;6268;48.188;17.134;2023-06-19T12:51:39;31.10;52.40
12408;DHT22;6268;48.188;17.134;2023-06-19T12:54:09;31.10;52.20
12408;DHT22;6268;48.188;17.134;2023-06-19T12:56:38;31.40;52.80
12408;DHT22;6268;48.188;17.134;2023-06-19T12:59:06;31.50;51.30
12408;DHT22;6268;48.188;17.134;2023-06-19T13:01:35;31.60;50.90
12408;DHT22;6268;48.188;17.134;2023-06-19T13:04:04;31.40;49.70
12408;DHT22;6268;48.188;17.134;2023-06-19T13:06:32;31.00;50.80
12408;DHT22;6268;48.188;17.134;2023-06-19T13:09:01;30.90;50.30
12408;DHT22;6268;48.188;17.134;2023-06-19T13:11:34;30.70;50.10
12408;DHT22;6268;48.188;17.134;2023-06-19T13:14:02;30.60;52.60
12408;DHT22;6268;48.188;17.134;2023-06-19T13:16:31;30.40;52.80
12408;DHT22;6268;48.188;17.134;2023-06-19T13:19:13;30.50;53.80
12408;DHT22;6268;48.188;17.134;2023-06-19T13:21:43;30.30;51.50
12408;DHT22;6268;48.188;17.134;2023-06-19T13:24:11;30.40;52.10
12408;DHT22;6268;48.188;17.134;2023-06-19T13:26:42;30.40;53.20
12408;DHT22;6268;48.188;17.134;2023-06-19T13:29:11;30.50;52.20
12408;DHT22;6268;48.188;17.134;2023-06-19T13:31:39;30.40;52.60
12408;DHT22;6268;48.188;17.134;2023-06-19T13:34:08;30.40;52.40
12408;DHT22;6268;48.188;17.134;2023-06-19T13:36:37;30.40;52.00
12408;DHT22;6268;48.188;17.134;2023-06-19T13:39:06;30.40;51.90
12408;DHT22;6268;48.188;17.134;2023-06-19T13:41:34;30.30;52.20
12408;DHT22;6268;48.188;17.134;2023-06-19T13:44:04;30.20;52.40
12408;DHT22;6268;48.188;17.134;2023-06-19T13:46:33;30.30;52.30
12408;DHT22;6268;48.188;17.134;2023-06-19T13:49:01;30.30;52.10
12408;DHT22;6268;48.188;17.134;2023-06-19T13:51:30;30.40;51.80
12408;DHT22;6268;48.188;17.134;2023-06-19T13:53:59;30.50;52.10
12408;DHT22;6268;48.188;17.134;2023-06-19T13:56:30;30.50;51.90
12408;DHT22;6268;48.188;17.134;2023-06-19T13:58:59;30.40;51.90
12408;DHT22;6268;48.188;17.134;2023-06-19T14:01:29;30.30;53.00
12408;DHT22;6268;48.188;17.134;2023-06-19T14:03:57;30.20;52.10
12408;DHT22;6268;48.188;17.134;2023-06-19T14:06:26;30.20;52.90
12408;DHT22;6268;48.188;17.134;2023-06-19T14:08:55;30.10;52.90
12408;DHT22;6268;48.188;17.134;2023-06-19T14:11:23;30.10;54.30
12408;DHT22;6268;48.188;17.134;2023-06-19T14:13:52;30.10;53.00
12408;DHT22;6268;48.188;17.134;2023-06-19T14:16:20;30.20;52.40
12408;DHT22;6268;48.188;17.134;2023-06-19T14:18:50;30.10;52.80
12408;DHT22;6268;48.188;17.134;2023-06-19T14:21:19;30.00;51.80
12408;DHT22;6268;48.188;17.134;2023-06-19T14:23:49;29.90;52.70
12408;DHT22;6268;48.188;17.134;2023-06-19T14:26:17;29.90;53.20
12408;DHT22;6268;48.188;17.134;2023-06-19T14:28:47;30.00;53.50
12408;DHT22;6268;48.188;17.134;2023-06-19T14:31:15;30.00;53.20
12408;DHT22;6268;48.188;17.134;2023-06-19T14:33:44;30.10;53.30
12408;DHT22;6268;48.188;17.134;2023-06-19T14:36:14;30.10;53.20
12408;DHT22;6268;48.188;17.134;2023-06-19T14:38:42;30.00;52.90
12408;DHT22;6268;48.188;17.134;2023-06-19T14:41:11;30.00;53.60
12408;DHT22;6268;48.188;17.134;2023-06-19T14:43:39;30.00;53.40
12408;DHT22;6268;48.188;17.134;2023-06-19T14:46:08;30.00;54.10
12408;DHT22;6268;48.188;17.134;2023-06-19T14:48:36;30.10;53.60
12408;DHT22;6268;48.188;17.134;2023-06-19T14:51:05;30.00;53.30
12408;DHT22;6268;48.188;17.134;2023-06-19T14:53:35;30.00;52.70
12408;DHT22;6268;48.188;17.134;2023-06-19T14:56:04;30.00;53.40
12408;DHT22;6268;48.188;17.134;2023-06-19T14:58:32;30.10;53.20
12408;DHT22;6268;48.188;17.134;2023-06-19T15:01:01;30.10;54.50
12408;DHT22;6268;48.188;17.134;2023-06-19T15:03:29;30.10;53.40
12408;DHT22;6268;48.188;17.134;2023-06-19T15:05:58;30.20;53.90
12408;DHT22;6268;48.188;17.134;2023-06-19T15:08:27;30.20;52.50
12408;DHT22;6268;48.188;17.134;2023-06-19T15:10:56;30.10;53.40
12408;DHT22;6268;48.188;17.134;2023-06-19T15:13:25;30.10;54.00
12408;DHT22;6268;48.188;17.134;2023-06-19T15:15:54;30.10;53.30
12408;DHT22;6268;48.188;17.134;2023-06-19T15:18:23;30.00;53.10
12408;DHT22;6268;48.188;17.134;2023-06-19T15:20:51;29.90;53.60
12408;DHT22;6268;48.188;17.134;2023-06-19T15:23:20;29.90;54.00
12408;DHT22;6268;48.188;17.134;2023-06-19T15:25:48;29.80;53.10
12408;DHT22;6268;48.188;17.134;2023-06-19T15:28:20;29.70;53.20
12408;DHT22;6268;48.188;17.134;2023-06-19T15:30:49;29.70;54.10
12408;DHT22;6268;48.188;17.134;2023-06-19T15:33:18;29.70;54.20
12408;DHT22;6268;48.188;17.134;2023-06-19T15:35:46;29.70;54.40
12408;DHT22;6268;48.188;17.134;2023-06-19T15:38:15;29.70;54.30
12408;DHT22;6268;48.188;17.134;2023-06-19T15:40:43;29.70;55.40
12408;DHT22;6268;48.188;17.134;2023-06-19T15:43:12;29.70;54.20
12408;DHT22;6268;48.188;17.134;2023-06-19T15:45:42;29.70;54.90